Grantsboro, North Carolina
Current Conditions -  °F | °C
As of 9:54 PM on Saturday 25 Oct 2014 (Local Time) from KEWN Reporting Station
Clear Clear  
Wind Chill: 57°   Ceiling: Unl
Heat Index: 57°   Visibility: 10mi
Dew Point: 50°   Wind: 5mph
Humidity: 77%   Direction: 250°WSW
Pressure: 29.91"   Gusts: NA
Location:  35.14°N, 76.84°W
Report Text: KEWN 260154Z 25004KT 10SM CLR 14/10 A2991 RMK AO2 SLP129 T01390100
Loading
Personal Weather Stations






























Interactive Weather Map
Tropical Storm Tracking
New forecast layout! Learn more

10-Day Weather Forecast

Advertisements
Track Severe Weather on mobile